Time;durP1;ratioP1;P1;durP2;ratioP2;P2;SDS_P1;SDS_P2;PMS_P1;PMS_P2;Temp;Humidity;BMP_temperature;BMP_pressure;BME280_temperature;BME280_humidity;BME280_pressure;Samples;Min_cycle;Max_cycle;Signal;HPM_P1;HPM_P2
2021/11/01 00:00:36;;;;;;;34.25;4.68;;;;;;;;;;4995180;28;20100;-85
2021/11/01 00:03:02;;;;;;;23.08;4.07;;;;;;;;;;5005260;28;20133;-83
2021/11/01 00:05:28;;;;;;;29.63;3.88;;;;;;;;;;5007087;28;20091;-82
2021/11/01 00:07:54;;;;;;;31.60;5.00;;;;;;;;;;5010059;28;20093;-82
2021/11/01 00:10:21;;;;;;;32.08;4.43;;;;;;;;;;5006094;28;20093;-83
2021/11/01 00:12:47;;;;;;;32.95;4.63;;;;;;;;;;4993416;28;20550;-80
2021/11/01 00:15:14;;;;;;;37.88;3.78;;;;;;;;;;5007197;28;20049;-83
2021/11/01 00:17:40;;;;;;;29.70;4.53;;;;;;;;;;5007816;28;20120;-84
2021/11/01 00:20:08;;;;;;;31.98;4.40;;;;;;;;;;5010356;28;20063;-83
2021/11/01 00:22:35;;;;;;;34.75;4.35;;;;;;;;;;5005020;28;20042;-83
2021/11/01 00:25:01;;;;;;;34.05;4.60;;;;;;;;;;4993761;28;20124;-80
2021/11/01 00:27:27;;;;;;;34.05;4.88;;;;;;;;;;5009526;28;20443;-82
2021/11/01 00:29:54;;;;;;;27.58;5.03;;;;;;;;;;4992437;28;20469;-82
2021/11/01 00:32:20;;;;;;;33.03;4.80;;;;;;;;;;4985933;28;20069;-84
2021/11/01 00:34:46;;;;;;;33.42;4.47;;;;;;;;;;4982251;28;20073;-83
2021/11/01 00:37:12;;;;;;;40.13;5.13;;;;;;;;;;4998810;28;20048;-82
2021/11/01 00:39:38;;;;;;;20.95;4.05;;;;;;;;;;5000954;28;20049;-83
2021/11/01 00:42:05;;;;;;;33.75;5.10;;;;;;;;;;4999336;28;20548;-82
2021/11/01 00:44:31;;;;;;;28.75;4.40;;;;;;;;;;5001962;28;20621;-82
2021/11/01 00:46:58;;;;;;;28.83;4.20;;;;;;;;;;5001334;28;20120;-82
2021/11/01 00:49:28;;;;;;;27.70;5.38;;;;;;;;;;4981073;28;20054;-82
2021/11/01 00:51:59;;;;;;;32.45;4.13;;;;;;;;;;5004234;28;20038;-81
2021/11/01 00:54:26;;;;;;;27.50;4.65;;;;;;;;;;5003628;28;20092;-82
2021/11/01 00:56:52;;;;;;;28.98;4.50;;;;;;;;;;5021396;28;20073;-82
2021/11/01 00:59:18;;;;;;;31.30;4.63;;;;;;;;;;5005329;28;20041;-83
2021/11/01 01:01:44;;;;;;;31.40;3.95;;;;;;;;;;4988291;28;20065;-84
2021/11/01 01:04:10;;;;;;;24.95;4.70;;;;;;;;;;4972353;28;20033;-82
2021/11/01 01:06:36;;;;;;;26.92;4.15;;;;;;;;;;5008264;28;20073;-82
2021/11/01 01:09:03;;;;;;;31.17;4.93;;;;;;;;;;5004890;28;20100;-83
2021/11/01 01:11:29;;;;;;;42.88;4.85;;;;;;;;;;4999455;28;20169;-83
2021/11/01 01:13:57;;;;;;;38.00;5.82;;;;;;;;;;5002284;28;20096;-83
2021/11/01 01:16:27;;;;;;;20.85;3.72;;;;;;;;;;5005027;28;20065;-82
2021/11/01 01:18:58;;;;;;;25.65;3.72;;;;;;;;;;5000571;28;20053;-82
2021/11/01 01:24:10;;;;;;;30.40;4.88;;;;;;;;;;5002017;28;20100;-82
2021/11/01 01:26:37;;;;;;;24.88;4.18;;;;;;;;;;5005521;28;20133;-83
2021/11/01 01:29:04;;;;;;;31.92;4.38;;;;;;;;;;4988983;28;20453;-83
2021/11/01 01:31:31;;;;;;;32.33;5.18;;;;;;;;;;4992866;28;20037;-84
2021/11/01 01:33:57;;;;;;;27.70;5.35;;;;;;;;;;4991749;28;20115;-83
2021/11/01 01:36:23;;;;;;;30.10;4.57;;;;;;;;;;4988589;28;20057;-83
2021/11/01 01:38:50;;;;;;;25.15;4.00;;;;;;;;;;4977286;28;20037;-83
2021/11/01 01:41:16;;;;;;;24.80;4.20;;;;;;;;;;5003715;28;20492;-84
2021/11/01 01:43:50;;;;;;;29.55;5.57;;;;;;;;;;5038090;28;20037;-84
2021/11/01 01:46:16;;;;;;;26.67;4.40;;;;;;;;;;5038416;28;20088;-82
2021/11/01 01:48:43;;;;;;;33.90;4.25;;;;;;;;;;5007274;28;20053;-83
2021/11/01 01:51:09;;;;;;;25.83;3.92;;;;;;;;;;5018123;28;20053;-83
2021/11/01 02:01:23;;;;;;;31.98;3.80;;;;;;;;;;6057828;22;20029;-81
2021/11/01 02:03:50;;;;;;;24.42;3.17;;;;;;;;;;5044131;28;20148;-80
2021/11/01 02:06:41;;;;;;;24.08;3.83;;;;;;;;;;5046488;28;20052;-83
2021/11/01 02:09:10;;;;;;;29.35;3.60;;;;;;;;;;5051408;28;20080;-82
2021/11/01 02:11:57;;;;;;;23.00;3.85;;;;;;;;;;5032013;28;20511;-83
2021/11/01 02:14:38;;;;;;;32.03;4.40;;;;;;;;;;5043204;28;20548;-83
2021/11/01 02:17:05;;;;;;;26.02;3.28;;;;;;;;;;5032126;28;20045;-82
2021/11/01 02:19:34;;;;;;;27.23;3.53;;;;;;;;;;5034616;28;20052;-83
2021/11/01 02:22:03;;;;;;;22.23;3.30;;;;;;;;;;5041135;28;20052;-83
2021/11/01 02:24:35;;;;;;;21.45;3.28;;;;;;;;;;5045124;28;20085;-82
2021/11/01 02:27:01;;;;;;;16.15;2.75;;;;;;;;;;5036676;28;20135;-82
2021/11/01 02:29:30;;;;;;;30.00;4.05;;;;;;;;;;5045938;28;20043;-82
2021/11/01 02:31:57;;;;;;;32.13;3.63;;;;;;;;;;5049889;28;20053;-83
2021/11/01 02:34:23;;;;;;;33.35;3.92;;;;;;;;;;5044831;28;20102;-83
2021/11/01 02:36:49;;;;;;;19.20;3.33;;;;;;;;;;5035139;28;20164;-83
2021/11/01 02:39:16;;;;;;;21.40;2.90;;;;;;;;;;5057750;28;20064;-84
2021/11/01 02:41:42;;;;;;;22.27;3.28;;;;;;;;;;5048952;28;20094;-83
2021/11/01 02:44:09;;;;;;;24.98;3.15;;;;;;;;;;5060764;28;20037;-82
2021/11/01 02:46:35;;;;;;;15.27;3.40;;;;;;;;;;5048800;28;20049;-82
2021/11/01 02:49:01;;;;;;;21.05;3.55;;;;;;;;;;5033474;28;20049;-83
2021/11/01 02:51:29;;;;;;;18.00;3.10;;;;;;;;;;5049427;28;20463;-82
2021/11/01 02:53:56;;;;;;;24.02;3.67;;;;;;;;;;5038443;28;20044;-83
2021/11/01 02:56:23;;;;;;;28.05;4.88;;;;;;;;;;5035156;28;20045;-82
2021/11/01 02:58:49;;;;;;;21.02;3.40;;;;;;;;;;5032626;28;20542;-82
2021/11/01 03:01:16;;;;;;;15.57;3.30;;;;;;;;;;5062184;28;20254;-84
2021/11/01 03:03:43;;;;;;;27.27;4.05;;;;;;;;;;5047788;28;20484;-83
2021/11/01 03:06:10;;;;;;;20.48;3.03;;;;;;;;;;5048115;28;20560;-83
2021/11/01 03:08:36;;;;;;;24.77;3.17;;;;;;;;;;5032222;28;20120;-83
2021/11/01 03:11:03;;;;;;;19.70;2.88;;;;;;;;;;5048550;28;20139;-83
2021/11/01 03:13:30;;;;;;;23.30;3.50;;;;;;;;;;5047938;28;20068;-82
2021/11/01 03:15:58;;;;;;;21.25;3.60;;;;;;;;;;5029633;28;20475;-82
2021/11/01 03:18:29;;;;;;;27.98;3.40;;;;;;;;;;5062975;28;20127;-83
2021/11/01 03:20:56;;;;;;;15.60;2.92;;;;;;;;;;5049528;28;20040;-83
2021/11/01 03:23:27;;;;;;;26.85;3.28;;;;;;;;;;5044349;28;20076;-82
2021/11/01 03:26:00;;;;;;;17.83;2.50;;;;;;;;;;5032933;28;20049;-81
2021/11/01 03:28:26;;;;;;;21.25;3.75;;;;;;;;;;5048856;28;20040;-82
2021/11/01 03:30:56;;;;;;;21.73;3.35;;;;;;;;;;5048445;28;20048;-82
2021/11/01 03:33:23;;;;;;;25.60;3.78;;;;;;;;;;5048440;28;20052;-82
2021/11/01 03:35:49;;;;;;;26.42;3.25;;;;;;;;;;5031877;28;20399;-82
2021/11/01 03:38:16;;;;;;;17.77;2.80;;;;;;;;;;5031421;28;20136;-82
2021/11/01 03:40:46;;;;;;;20.58;2.95;;;;;;;;;;5051100;28;20064;-82
2021/11/01 03:43:17;;;;;;;24.63;3.08;;;;;;;;;;5063756;28;20049;-83
2021/11/01 03:45:43;;;;;;;18.67;3.13;;;;;;;;;;5014857;28;20095;-83
2021/11/01 03:48:12;;;;;;;18.13;3.10;;;;;;;;;;5031988;28;20044;-82
2021/11/01 03:50:45;;;;;;;18.50;3.30;;;;;;;;;;5049912;28;20129;-83
2021/11/01 03:53:11;;;;;;;16.38;4.18;;;;;;;;;;5070758;28;20123;-83
2021/11/01 03:55:37;;;;;;;15.13;2.83;;;;;;;;;;5045076;28;20055;-83
2021/11/01 03:58:04;;;;;;;15.10;2.80;;;;;;;;;;5033036;28;20047;-81
2021/11/01 04:00:33;;;;;;;20.83;2.90;;;;;;;;;;5054196;28;20067;-82
2021/11/01 04:02:59;;;;;;;13.73;2.80;;;;;;;;;;5038472;28;20072;-82
2021/11/01 04:05:25;;;;;;;12.98;3.20;;;;;;;;;;5054090;28;20049;-82
2021/11/01 04:07:52;;;;;;;15.43;2.72;;;;;;;;;;5055893;28;20128;-83
2021/11/01 04:10:18;;;;;;;21.02;2.80;;;;;;;;;;5035102;28;20066;-83
2021/11/01 04:12:44;;;;;;;13.38;2.83;;;;;;;;;;5020661;28;20050;-83
2021/11/01 04:15:14;;;;;;;17.25;2.72;;;;;;;;;;5057683;28;20047;-83
2021/11/01 04:17:52;;;;;;;22.15;2.70;;;;;;;;;;5034330;28;20037;-83
2021/11/01 04:22:53;;;;;;;19.30;3.65;;;;;;;;;;5047325;28;20510;-83
2021/11/01 04:25:21;;;;;;;14.07;2.42;;;;;;;;;;5038156;28;20079;-82
2021/11/01 04:27:48;;;;;;;14.27;2.70;;;;;;;;;;5035635;28;20041;-83
2021/11/01 04:30:14;;;;;;;17.77;2.97;;;;;;;;;;5031302;28;20077;-83
2021/11/01 04:32:42;;;;;;;14.32;2.25;;;;;;;;;;5050207;28;20107;-83
2021/11/01 04:35:17;;;;;;;14.27;2.67;;;;;;;;;;5038317;28;20393;-83
2021/11/01 04:37:45;;;;;;;15.75;2.83;;;;;;;;;;5059943;28;20486;-83
2021/11/01 04:40:35;;;;;;;16.90;2.55;;;;;;;;;;5051117;28;20048;-83
2021/11/01 04:53:54;;;;;;;15.25;2.95;;;;;;;;;;5044151;28;20083;-82
2021/11/01 04:56:23;;;;;;;12.20;2.20;;;;;;;;;;5029477;28;20443;-82
2021/11/01 04:58:50;;;;;;;11.68;2.50;;;;;;;;;;5046057;28;20056;-82
2021/11/01 05:01:19;;;;;;;11.10;2.58;;;;;;;;;;5048005;28;20045;-81
2021/11/01 05:03:49;;;;;;;10.95;2.38;;;;;;;;;;5038024;28;20072;-83
2021/11/01 05:06:21;;;;;;;19.30;3.03;;;;;;;;;;5061862;28;20040;-83
2021/11/01 05:08:51;;;;;;;9.13;2.30;;;;;;;;;;5057930;28;20119;-82
2021/11/01 05:14:02;;;;;;;14.85;4.22;;;;;;;;;;5054223;28;20134;-83
2021/11/01 05:19:10;;;;;;;12.27;2.90;;;;;;;;;;5038142;28;20487;-82
2021/11/01 05:21:54;;;;;;;12.32;2.05;;;;;;;;;;5049218;28;20052;-78
2021/11/01 05:24:34;;;;;;;18.15;2.50;;;;;;;;;;5056882;28;20052;-80
2021/11/01 05:29:32;;;;;;;15.35;2.85;;;;;;;;;;5035899;28;20127;-81
2021/11/01 05:32:07;;;;;;;14.68;2.75;;;;;;;;;;5025034;28;20049;-82
2021/11/01 05:34:33;;;;;;;14.90;2.80;;;;;;;;;;5038007;28;20041;-83
2021/11/01 05:36:59;;;;;;;12.32;2.20;;;;;;;;;;5037705;28;20052;-81
2021/11/01 05:39:26;;;;;;;17.10;2.42;;;;;;;;;;5032703;28;20102;-84
2021/11/01 05:41:52;;;;;;;9.30;2.28;;;;;;;;;;5046171;28;20047;-81
2021/11/01 05:44:18;;;;;;;14.13;3.17;;;;;;;;;;5040646;28;20045;-83
2021/11/01 05:46:50;;;;;;;13.77;2.58;;;;;;;;;;5035693;28;20053;-83
2021/11/01 05:49:17;;;;;;;13.38;2.53;;;;;;;;;;5035880;28;20451;-82
2021/11/01 05:51:43;;;;;;;9.48;2.50;;;;;;;;;;5031810;28;20666;-83
2021/11/01 05:54:14;;;;;;;14.57;3.45;;;;;;;;;;5040701;28;20041;-82
2021/11/01 06:02:38;;;;;;;12.18;2.25;;;;;;;;;;4975151;28;20069;-82
2021/11/01 06:05:27;;;;;;;10.65;2.65;;;;;;;;;;4982640;28;20209;-83
2021/11/01 06:13:30;;;;;;;14.43;2.45;;;;;;;;;;5031357;28;20053;-83
2021/11/01 06:15:57;;;;;;;16.33;2.80;;;;;;;;;;5042752;28;20497;-85
2021/11/01 06:18:35;;;;;;;19.33;2.63;;;;;;;;;;5018285;28;20045;-85
2021/11/01 06:21:14;;;;;;;13.88;2.83;;;;;;;;;;5029275;28;20049;-84
2021/11/01 06:23:41;;;;;;;12.25;2.80;;;;;;;;;;5013493;28;20048;-85
2021/11/01 06:26:07;;;;;;;13.25;2.88;;;;;;;;;;5049409;28;20483;-84
2021/11/01 06:28:34;;;;;;;15.55;3.15;;;;;;;;;;5030274;28;20037;-84
2021/11/01 06:31:12;;;;;;;16.35;2.97;;;;;;;;;;5038140;28;20127;-85
2021/11/01 06:34:00;;;;;;;9.85;2.50;;;;;;;;;;5030119;28;20053;-86
2021/11/01 06:57:49;;;;;;;13.45;2.65;;;;;;;;;;5040949;28;20119;-86
2021/11/01 08:38:11;;;;;;;16.02;2.78;;;;;;;;;;5031857;28;20057;-87
2021/11/01 08:51:08;;;;;;;13.15;3.92;;;;;;;;;;5045361;28;20084;-83
2021/11/01 09:04:35;;;;;;;11.63;4.47;;;;;;;;;;5031573;28;21342;-86
2021/11/01 09:28:37;;;;;;;14.63;3.00;;;;;;;;;;5051217;28;20052;-80
2021/11/01 09:36:38;;;;;;;9.57;2.38;;;;;;;;;;5065483;28;20048;-84
2021/11/01 09:41:49;;;;;;;10.82;3.35;;;;;;;;;;5045411;28;20037;-85
2021/11/01 09:44:22;;;;;;;11.43;2.47;;;;;;;;;;5044623;28;20420;-84
2021/11/01 09:46:48;;;;;;;11.98;3.45;;;;;;;;;;5033391;28;20442;-83
2021/11/01 09:49:14;;;;;;;10.40;3.08;;;;;;;;;;5051275;28;20095;-83
2021/11/01 09:51:45;;;;;;;14.00;3.45;;;;;;;;;;5031436;28;20091;-79
2021/11/01 09:54:20;;;;;;;12.85;3.38;;;;;;;;;;5048893;28;20550;-80
2021/11/01 09:56:59;;;;;;;11.52;3.65;;;;;;;;;;5021749;28;20045;-87
2021/11/01 09:59:26;;;;;;;11.10;2.95;;;;;;;;;;5049557;28;20385;-78
2021/11/01 10:01:53;;;;;;;12.00;3.10;;;;;;;;;;5048974;28;20179;-81
2021/11/01 10:04:19;;;;;;;9.50;3.03;;;;;;;;;;5037235;28;20100;-80
2021/11/01 10:06:51;;;;;;;9.25;2.50;;;;;;;;;;5029711;28;20053;-88
2021/11/01 10:09:27;;;;;;;10.15;2.40;;;;;;;;;;5049013;28;20049;-79
2021/11/01 10:11:53;;;;;;;6.63;2.20;;;;;;;;;;5043231;28;20052;-86
2021/11/01 10:14:19;;;;;;;9.68;2.53;;;;;;;;;;5034966;28;20049;-84
2021/11/01 10:19:32;;;;;;;10.30;2.67;;;;;;;;;;5031402;28;20132;-79
2021/11/01 10:22:02;;;;;;;8.43;2.03;;;;;;;;;;5030993;28;20060;-79
2021/11/01 10:24:34;;;;;;;8.65;2.50;;;;;;;;;;5023146;28;20463;-80
2021/11/01 10:27:05;;;;;;;9.38;2.28;;;;;;;;;;5034122;28;20076;-80
2021/11/01 10:29:33;;;;;;;8.98;2.53;;;;;;;;;;5028395;28;20081;-80
2021/11/01 10:31:59;;;;;;;7.65;2.10;;;;;;;;;;5027109;28;20036;-81
2021/11/01 10:34:29;;;;;;;10.55;2.22;;;;;;;;;;5019825;28;20041;-80
2021/11/01 10:36:59;;;;;;;9.32;2.67;;;;;;;;;;5016929;28;20044;-82
2021/11/01 10:39:26;;;;;;;13.73;3.00;;;;;;;;;;5017571;28;20054;-83
2021/11/01 11:11:53;;;;;;;8.23;2.20;;;;;;;;;;5030213;28;20113;-82
2021/11/01 11:22:23;;;;;;;9.38;2.67;;;;;;;;;;5051783;28;20110;-84
2021/11/01 11:27:54;;;;;;;9.98;2.05;;;;;;;;;;5032447;28;20055;-84
2021/11/01 11:47:12;;;;;;;9.23;1.90;;;;;;;;;;5034242;28;20495;-86
2021/11/01 11:49:38;;;;;;;7.00;1.80;;;;;;;;;;5043159;28;20124;-88
2021/11/01 11:52:06;;;;;;;5.47;1.40;;;;;;;;;;5022835;28;20055;-88
2021/11/01 11:54:41;;;;;;;6.93;1.95;;;;;;;;;;5018047;28;20495;-88
2021/11/01 11:57:37;;;;;;;8.23;2.22;;;;;;;;;;5016631;28;20483;-87
2021/11/01 12:00:05;;;;;;;7.28;2.50;;;;;;;;;;5023718;28;20076;-89
2021/11/01 12:02:39;;;;;;;9.23;1.80;;;;;;;;;;5032277;28;20075;-88
2021/11/01 12:05:05;;;;;;;;;;;;;;;;;;5032248;28;20041;-85
2021/11/01 12:07:39;;;;;;;6.70;1.70;;;;;;;;;;5048929;28;19983;-87
2021/11/01 12:10:13;;;;;;;6.90;1.40;;;;;;;;;;5041030;28;20502;-89
2021/11/01 12:17:55;;;;;;;4.40;1.30;;;;;;;;;;5036025;28;20041;-89
2021/11/01 12:20:23;;;;;;;7.80;1.92;;;;;;;;;;5044900;28;20083;-90
2021/11/01 12:22:59;;;;;;;5.82;1.25;;;;;;;;;;5061032;28;20037;-89
2021/11/01 12:25:27;;;;;;;7.72;1.80;;;;;;;;;;5016301;28;20056;-89
2021/11/01 12:28:02;;;;;;;8.48;2.00;;;;;;;;;;5031886;28;20096;-87
2021/11/01 12:30:33;;;;;;;6.13;1.65;;;;;;;;;;5038365;28;20056;-89
2021/11/01 12:33:00;;;;;;;5.82;1.40;;;;;;;;;;5022340;28;20071;-89
2021/11/01 12:35:28;;;;;;;7.93;1.30;;;;;;;;;;5032610;28;20484;-88
2021/11/01 12:37:56;;;;;;;3.83;1.40;;;;;;;;;;5017450;28;20060;-89
2021/11/01 12:41:30;;;;;;;6.45;1.50;;;;;;;;;;5032747;28;20057;-89
2021/11/01 12:59:43;;;;;;;7.30;1.20;;;;;;;;;;5055772;28;20103;-92
2021/11/01 13:02:15;;;;;;;9.27;1.48;;;;;;;;;;5018379;28;20553;-89
2021/11/01 13:04:42;;;;;;;3.70;1.00;;;;;;;;;;5032952;28;20053;-91
2021/11/01 13:09:42;;;;;;;5.38;0.90;;;;;;;;;;5029074;28;20095;-91
2021/11/01 13:12:30;;;;;;;;;;;;;;;;;;5033535;28;20045;-90
2021/11/01 13:20:20;;;;;;;9.38;1.00;;;;;;;;;;5045826;28;20064;-90
2021/11/01 13:22:47;;;;;;;3.85;1.13;;;;;;;;;;5046863;28;20041;-90
2021/11/01 13:25:35;;;;;;;7.07;1.23;;;;;;;;;;5028471;28;20144;-92
2021/11/01 13:36:38;;;;;;;5.57;1.30;;;;;;;;;;5039731;28;21479;-92
2021/11/01 13:39:06;;;;;;;2.63;0.98;;;;;;;;;;5037924;28;20101;-90
2021/11/01 13:41:32;;;;;;;6.63;2.33;;;;;;;;;;5032079;28;20056;-91
2021/11/01 13:44:09;;;;;;;8.98;1.38;;;;;;;;;;5015882;28;20476;-91
2021/11/01 13:46:42;;;;;;;5.07;1.35;;;;;;;;;;5044800;28;20080;-90
2021/11/01 13:49:09;;;;;;;4.32;1.10;;;;;;;;;;5032476;28;20041;-90
2021/11/01 13:51:35;;;;;;;8.20;1.38;;;;;;;;;;5036417;28;20037;-91
2021/11/01 13:54:21;;;;;;;4.50;0.98;;;;;;;;;;5022809;28;20510;-90
2021/11/01 13:56:50;;;;;;;4.05;0.90;;;;;;;;;;5048533;28;20045;-91
2021/11/01 15:21:50;;;;;;;5.18;1.27;;;;;;;;;;5040096;28;20544;-84
2021/11/01 15:27:11;;;;;;;8.40;2.08;;;;;;;;;;5032582;28;20057;-80
2021/11/01 15:33:03;;;;;;;5.47;1.45;;;;;;;;;;5051201;28;20127;-79
2021/11/01 15:40:12;;;;;;;5.47;1.75;;;;;;;;;;5032202;28;20518;-80
2021/11/01 16:15:11;;;;;;;4.15;1.63;;;;;;;;;;5032126;28;20126;-80
2021/11/01 16:16:24;;;;;;;10.45;1.83;;;;;;;;;;5048204;28;20102;-83
2021/11/01 16:18:50;;;;;;;9.45;1.95;;;;;;;;;;5018918;28;20049;-82
2021/11/01 16:21:18;;;;;;;9.65;2.25;;;;;;;;;;5014971;28;20045;-83
2021/11/01 16:23:44;;;;;;;5.75;2.00;;;;;;;;;;5031217;28;20076;-82
2021/11/01 16:26:25;;;;;;;8.98;2.15;;;;;;;;;;5016336;28;20079;-81
2021/11/01 16:28:59;;;;;;;10.18;2.65;;;;;;;;;;5038581;28;20045;-85
2021/11/01 16:31:42;;;;;;;;;;;;;;;;;;5040984;28;20044;-92
2021/11/01 16:39:47;;;;;;;7.93;2.20;;;;;;;;;;5030397;28;20749;-79
2021/11/01 16:42:14;;;;;;;12.60;3.40;;;;;;;;;;5043403;28;20053;-83
2021/11/01 16:44:42;;;;;;;9.50;2.33;;;;;;;;;;5041192;28;20084;-84
2021/11/01 16:47:08;;;;;;;6.95;2.92;;;;;;;;;;5038873;28;20501;-87
2021/11/01 16:49:34;;;;;;;8.68;2.60;;;;;;;;;;5039336;28;20045;-81
2021/11/01 16:52:22;;;;;;;8.27;2.50;;;;;;;;;;5051441;28;20513;-83
2021/11/01 16:54:55;;;;;;;8.73;2.60;;;;;;;;;;5038987;28;20048;-87
2021/11/01 16:57:30;;;;;;;9.63;2.55;;;;;;;;;;5045789;28;20048;-82
2021/11/01 17:08:16;;;;;;;9.02;2.67;;;;;;;;;;5042718;28;20049;-82
2021/11/01 17:24:12;;;;;;;9.93;3.13;;;;;;;;;;5029640;28;20108;-81
2021/11/01 17:29:44;;;;;;;9.73;3.65;;;;;;;;;;5039576;28;20394;-82
2021/11/01 17:35:11;;;;;;;13.68;2.50;;;;;;;;;;5033922;28;20199;-83
2021/11/01 18:46:13;;;;;;;11.15;3.17;;;;;;;;;;5039403;28;20396;-86
2021/11/01 18:51:29;;;;;;;11.35;3.10;;;;;;;;;;5067002;28;20045;-88
2021/11/01 18:53:58;;;;;;;11.63;3.53;;;;;;;;;;5053839;28;20049;-88
2021/11/01 18:56:32;;;;;;;8.88;3.25;;;;;;;;;;5029817;28;20049;-82
2021/11/01 18:59:01;;;;;;;14.70;4.00;;;;;;;;;;5037604;28;20041;-83
2021/11/01 19:01:28;;;;;;;17.33;3.83;;;;;;;;;;5052913;28;20094;-86
2021/11/01 19:03:56;;;;;;;9.02;2.40;;;;;;;;;;5036349;28;20048;-84
2021/11/01 19:06:36;;;;;;;12.45;3.05;;;;;;;;;;5036085;28;20057;-85
2021/11/01 20:03:45;;;;;;;7.70;2.63;;;;;;;;;;5045085;28;20136;-78
2021/11/01 20:09:24;;;;;;;11.02;4.22;;;;;;;;;;5057198;28;20087;-78
2021/11/01 21:27:03;;;;;;;6.30;2.92;;;;;;;;;;5045636;28;20056;-81
2021/11/01 21:29:31;;;;;;;6.78;2.67;;;;;;;;;;5026129;28;20049;-83
2021/11/01 21:31:57;;;;;;;5.15;2.53;;;;;;;;;;5062086;28;20060;-80
2021/11/01 21:34:37;;;;;;;5.75;3.20;;;;;;;;;;5044297;28;20068;-79
2021/11/01 21:37:04;;;;;;;7.65;3.22;;;;;;;;;;5027250;28;20411;-79
2021/11/01 21:39:30;;;;;;;7.93;3.10;;;;;;;;;;5029016;28;20053;-75
2021/11/01 21:41:57;;;;;;;5.70;3.40;;;;;;;;;;5042486;28;20479;-78
2021/11/01 21:44:23;;;;;;;6.72;3.05;;;;;;;;;;5038701;28;20535;-79
2021/11/01 21:46:49;;;;;;;7.30;3.63;;;;;;;;;;5038863;28;20049;-81
2021/11/01 21:49:15;;;;;;;8.63;3.17;;;;;;;;;;5040980;28;20049;-79
2021/11/01 21:51:43;;;;;;;8.68;4.07;;;;;;;;;;5023812;28;20479;-79
2021/11/01 21:54:31;;;;;;;8.90;3.30;;;;;;;;;;5022215;28;20170;-78
2021/11/01 21:57:06;;;;;;;5.95;3.38;;;;;;;;;;5038833;28;20049;-79
2021/11/01 22:23:58;;;;;;;8.10;4.50;;;;;;;;;;5026001;28;20128;-77
2021/11/01 22:34:34;;;;;;;11.23;4.70;;;;;;;;;;5061388;28;20537;-77
2021/11/01 22:44:56;;;;;;;7.28;4.90;;;;;;;;;;5063652;28;20068;-78
2021/11/01 22:58:09;;;;;;;9.70;4.90;;;;;;;;;;5047103;28;20057;-79
2021/11/01 23:00:44;;;;;;;6.65;5.00;;;;;;;;;;5031626;28;20511;-78
2021/11/01 23:03:59;;;;;;;8.50;4.70;;;;;;;;;;5031151;28;20049;-79
2021/11/01 23:33:30;;;;;;;13.13;6.35;;;;;;;;;;5028066;28;20484;-78
2021/11/01 23:35:56;;;;;;;10.07;5.70;;;;;;;;;;5033009;28;20143;-78
2021/11/01 23:38:23;;;;;;;12.65;6.35;;;;;;;;;;5046263;28;20048;-78
2021/11/01 23:40:49;;;;;;;10.02;7.10;;;;;;;;;;5032887;28;20137;-78
2021/11/01 23:43:15;;;;;;;12.05;6.00;;;;;;;;;;5030135;28;20075;-77
2021/11/01 23:45:42;;;;;;;9.63;6.93;;;;;;;;;;5046586;28;20134;-78
2021/11/01 23:48:09;;;;;;;12.80;7.47;;;;;;;;;;5043119;28;20064;-79
2021/11/01 23:50:35;;;;;;;14.52;7.22;;;;;;;;;;5048310;28;20037;-78
2021/11/01 23:53:09;;;;;;;15.02;8.73;;;;;;;;;;5025274;28;20049;-79
2021/11/01 23:55:35;;;;;;;8.90;7.35;;;;;;;;;;5030769;28;20124;-78
2021/11/01 23:58:03;;;;;;;11.13;7.05;;;;;;;;;;5029933;28;20084;-78
